< < Back
Terminal Aerodrome Forecast


Current Version              Previous Versions:   1  2  3  4  5  6  7  8  9  

Terminal Aerodrome Forecast

634
FTUS44 KBMX 242334
TAFTCL
TAF
KTCL 242334Z 2500/2524 02003KT P6SM FEW080
     FM251700 06005KT P6SM SCT060=

Latest METAR

064
SAUS70 KWBC 251500 RRL
MTRTCL
METAR KTCL 251453Z 00000KT 10SM CLR 29/21 A3006 RMK AO2 SLP175 T02940206
51003


USA.gov is the U.S. government's official web portal to all federal, state and local government web resources and services.